sensor_id;sensor_type;location;lat;lon;timestamp;P1;durP1;ratioP1;P2;durP2;ratioP2
63087;SDS011;49173;43.164;27.786;2024-03-22T00:02:10;8.18;;;6.53;;
63087;SDS011;49173;43.164;27.786;2024-03-22T00:04:36;7.93;;;6.85;;
63087;SDS011;49173;43.164;27.786;2024-03-22T00:07:03;7.88;;;6.60;;
63087;SDS011;49173;43.164;27.786;2024-03-22T00:09:29;10.82;;;6.72;;
63087;SDS011;49173;43.164;27.786;2024-03-22T00:11:55;7.32;;;6.28;;
63087;SDS011;49173;43.164;27.786;2024-03-22T00:14:21;9.27;;;7.13;;
63087;SDS011;49173;43.164;27.786;2024-03-22T00:16:47;8.45;;;6.75;;
63087;SDS011;49173;43.164;27.786;2024-03-22T00:19:13;10.07;;;7.18;;
63087;SDS011;49173;43.164;27.786;2024-03-22T00:21:39;8.13;;;6.82;;
63087;SDS011;49173;43.164;27.786;2024-03-22T00:24:05;7.35;;;6.13;;
63087;SDS011;49173;43.164;27.786;2024-03-22T00:26:31;7.65;;;6.60;;
63087;SDS011;49173;43.164;27.786;2024-03-22T00:28:57;7.38;;;6.35;;
63087;SDS011;49173;43.164;27.786;2024-03-22T00:31:25;7.88;;;7.07;;
63087;SDS011;49173;43.164;27.786;2024-03-22T00:33:51;7.63;;;6.47;;
63087;SDS011;49173;43.164;27.786;2024-03-22T00:36:17;7.63;;;6.07;;
63087;SDS011;49173;43.164;27.786;2024-03-22T00:38:43;7.78;;;6.80;;
63087;SDS011;49173;43.164;27.786;2024-03-22T00:41:08;7.68;;;6.45;;
63087;SDS011;49173;43.164;27.786;2024-03-22T00:43:34;7.55;;;6.60;;
63087;SDS011;49173;43.164;27.786;2024-03-22T00:46:01;7.30;;;6.25;;
63087;SDS011;49173;43.164;27.786;2024-03-22T00:48:28;7.80;;;6.78;;
63087;SDS011;49173;43.164;27.786;2024-03-22T00:50:54;8.27;;;6.63;;
63087;SDS011;49173;43.164;27.786;2024-03-22T00:53:20;9.57;;;7.15;;
63087;SDS011;49173;43.164;27.786;2024-03-22T00:55:46;9.48;;;7.50;;
63087;SDS011;49173;43.164;27.786;2024-03-22T00:58:19;7.43;;;6.65;;
63087;SDS011;49173;43.164;27.786;2024-03-22T01:00:45;8.63;;;6.95;;
63087;SDS011;49173;43.164;27.786;2024-03-22T01:03:11;9.93;;;7.75;;
63087;SDS011;49173;43.164;27.786;2024-03-22T01:05:37;10.32;;;7.07;;
63087;SDS011;49173;43.164;27.786;2024-03-22T01:08:03;9.93;;;7.25;;
63087;SDS011;49173;43.164;27.786;2024-03-22T01:10:30;7.28;;;6.53;;
63087;SDS011;49173;43.164;27.786;2024-03-22T01:12:56;10.30;;;7.30;;
63087;SDS011;49173;43.164;27.786;2024-03-22T01:15:22;8.88;;;6.85;;
63087;SDS011;49173;43.164;27.786;2024-03-22T01:17:47;9.68;;;7.20;;
63087;SDS011;49173;43.164;27.786;2024-03-22T01:20:13;9.90;;;7.28;;
63087;SDS011;49173;43.164;27.786;2024-03-22T01:22:39;8.52;;;6.95;;
63087;SDS011;49173;43.164;27.786;2024-03-22T01:25:05;8.65;;;7.50;;
63087;SDS011;49173;43.164;27.786;2024-03-22T01:27:32;8.77;;;6.82;;
63087;SDS011;49173;43.164;27.786;2024-03-22T01:29:57;8.30;;;6.90;;
63087;SDS011;49173;43.164;27.786;2024-03-22T01:32:23;8.73;;;6.90;;
63087;SDS011;49173;43.164;27.786;2024-03-22T01:34:49;11.02;;;7.35;;
63087;SDS011;49173;43.164;27.786;2024-03-22T01:37:15;8.27;;;7.30;;
63087;SDS011;49173;43.164;27.786;2024-03-22T01:39:40;9.52;;;7.32;;
63087;SDS011;49173;43.164;27.786;2024-03-22T01:42:06;8.82;;;6.80;;
63087;SDS011;49173;43.164;27.786;2024-03-22T01:44:32;8.48;;;6.93;;
63087;SDS011;49173;43.164;27.786;2024-03-22T01:46:58;9.73;;;7.75;;
63087;SDS011;49173;43.164;27.786;2024-03-22T01:49:27;10.73;;;7.93;;
63087;SDS011;49173;43.164;27.786;2024-03-22T01:51:53;8.65;;;7.70;;
63087;SDS011;49173;43.164;27.786;2024-03-22T01:54:20;10.23;;;7.65;;
63087;SDS011;49173;43.164;27.786;2024-03-22T01:56:47;10.65;;;7.88;;
63087;SDS011;49173;43.164;27.786;2024-03-22T01:59:13;10.60;;;8.00;;
63087;SDS011;49173;43.164;27.786;2024-03-22T02:01:40;8.93;;;7.68;;
63087;SDS011;49173;43.164;27.786;2024-03-22T02:04:06;10.35;;;8.32;;
63087;SDS011;49173;43.164;27.786;2024-03-22T02:06:32;8.52;;;7.13;;
63087;SDS011;49173;43.164;27.786;2024-03-22T02:08:58;8.95;;;7.20;;
63087;SDS011;49173;43.164;27.786;2024-03-22T02:11:24;8.80;;;7.22;;
63087;SDS011;49173;43.164;27.786;2024-03-22T02:13:51;8.10;;;6.85;;
63087;SDS011;49173;43.164;27.786;2024-03-22T02:16:17;8.68;;;6.90;;
63087;SDS011;49173;43.164;27.786;2024-03-22T02:18:43;8.18;;;6.60;;
63087;SDS011;49173;43.164;27.786;2024-03-22T02:21:13;8.73;;;6.80;;
63087;SDS011;49173;43.164;27.786;2024-03-22T02:23:40;9.23;;;7.32;;
63087;SDS011;49173;43.164;27.786;2024-03-22T02:26:07;8.70;;;6.97;;
63087;SDS011;49173;43.164;27.786;2024-03-22T02:28:33;8.98;;;7.18;;
63087;SDS011;49173;43.164;27.786;2024-03-22T02:31:01;9.10;;;7.57;;
63087;SDS011;49173;43.164;27.786;2024-03-22T02:33:28;10.95;;;8.88;;
63087;SDS011;49173;43.164;27.786;2024-03-22T02:35:54;9.50;;;8.43;;
63087;SDS011;49173;43.164;27.786;2024-03-22T02:38:20;9.60;;;8.38;;
63087;SDS011;49173;43.164;27.786;2024-03-22T02:40:47;9.27;;;8.00;;
63087;SDS011;49173;43.164;27.786;2024-03-22T02:43:14;9.88;;;8.55;;
63087;SDS011;49173;43.164;27.786;2024-03-22T02:45:39;11.48;;;8.48;;
63087;SDS011;49173;43.164;27.786;2024-03-22T02:48:06;10.60;;;8.70;;
63087;SDS011;49173;43.164;27.786;2024-03-22T02:50:35;10.65;;;8.48;;
63087;SDS011;49173;43.164;27.786;2024-03-22T02:53:02;10.73;;;9.00;;
63087;SDS011;49173;43.164;27.786;2024-03-22T02:55:29;11.32;;;8.93;;
63087;SDS011;49173;43.164;27.786;2024-03-22T02:58:01;11.07;;;9.30;;
63087;SDS011;49173;43.164;27.786;2024-03-22T03:00:27;11.43;;;8.52;;
63087;SDS011;49173;43.164;27.786;2024-03-22T03:02:52;10.93;;;9.05;;
63087;SDS011;49173;43.164;27.786;2024-03-22T03:05:18;10.98;;;8.90;;
63087;SDS011;49173;43.164;27.786;2024-03-22T03:07:44;12.93;;;8.65;;
63087;SDS011;49173;43.164;27.786;2024-03-22T03:10:10;11.65;;;9.15;;
63087;SDS011;49173;43.164;27.786;2024-03-22T03:12:35;10.88;;;8.77;;
63087;SDS011;49173;43.164;27.786;2024-03-22T03:15:01;10.40;;;8.20;;
63087;SDS011;49173;43.164;27.786;2024-03-22T03:17:28;10.68;;;8.50;;
63087;SDS011;49173;43.164;27.786;2024-03-22T03:19:53;10.73;;;8.80;;
63087;SDS011;49173;43.164;27.786;2024-03-22T03:22:20;12.38;;;9.30;;
63087;SDS011;49173;43.164;27.786;2024-03-22T03:24:45;9.88;;;8.57;;
63087;SDS011;49173;43.164;27.786;2024-03-22T03:27:11;10.50;;;8.60;;
63087;SDS011;49173;43.164;27.786;2024-03-22T03:29:37;10.77;;;9.07;;
63087;SDS011;49173;43.164;27.786;2024-03-22T03:32:03;10.32;;;8.30;;
63087;SDS011;49173;43.164;27.786;2024-03-22T03:34:29;11.27;;;8.95;;
63087;SDS011;49173;43.164;27.786;2024-03-22T03:36:55;11.13;;;8.60;;
63087;SDS011;49173;43.164;27.786;2024-03-22T03:39:20;10.55;;;8.43;;
63087;SDS011;49173;43.164;27.786;2024-03-22T03:41:46;10.43;;;8.80;;
63087;SDS011;49173;43.164;27.786;2024-03-22T03:44:12;11.13;;;8.55;;
63087;SDS011;49173;43.164;27.786;2024-03-22T03:46:38;10.68;;;9.23;;
63087;SDS011;49173;43.164;27.786;2024-03-22T03:49:04;11.55;;;9.25;;
63087;SDS011;49173;43.164;27.786;2024-03-22T03:51:29;10.60;;;8.88;;
63087;SDS011;49173;43.164;27.786;2024-03-22T03:53:55;10.50;;;9.00;;
63087;SDS011;49173;43.164;27.786;2024-03-22T03:56:21;10.23;;;8.80;;
63087;SDS011;49173;43.164;27.786;2024-03-22T03:58:47;11.02;;;9.18;;
63087;SDS011;49173;43.164;27.786;2024-03-22T04:01:13;9.80;;;7.80;;
63087;SDS011;49173;43.164;27.786;2024-03-22T04:03:39;11.27;;;9.00;;
63087;SDS011;49173;43.164;27.786;2024-03-22T04:06:05;10.00;;;8.25;;
63087;SDS011;49173;43.164;27.786;2024-03-22T04:08:30;11.80;;;9.32;;
63087;SDS011;49173;43.164;27.786;2024-03-22T04:10:57;11.10;;;8.98;;
63087;SDS011;49173;43.164;27.786;2024-03-22T04:13:26;15.80;;;11.52;;
63087;SDS011;49173;43.164;27.786;2024-03-22T04:15:52;15.20;;;11.45;;
63087;SDS011;49173;43.164;27.786;2024-03-22T04:18:19;13.00;;;10.35;;
63087;SDS011;49173;43.164;27.786;2024-03-22T04:20:57;12.25;;;9.60;;
63087;SDS011;49173;43.164;27.786;2024-03-22T04:23:24;12.50;;;10.20;;
63087;SDS011;49173;43.164;27.786;2024-03-22T04:25:57;14.65;;;10.00;;
63087;SDS011;49173;43.164;27.786;2024-03-22T04:28:25;12.20;;;9.10;;
63087;SDS011;49173;43.164;27.786;2024-03-22T04:31:09;11.85;;;9.45;;
63087;SDS011;49173;43.164;27.786;2024-03-22T04:33:35;11.65;;;9.60;;
63087;SDS011;49173;43.164;27.786;2024-03-22T04:36:02;9.93;;;8.40;;
63087;SDS011;49173;43.164;27.786;2024-03-22T04:38:29;13.00;;;9.93;;
63087;SDS011;49173;43.164;27.786;2024-03-22T04:40:56;11.82;;;9.93;;
63087;SDS011;49173;43.164;27.786;2024-03-22T04:43:23;12.02;;;9.60;;
63087;SDS011;49173;43.164;27.786;2024-03-22T04:45:49;16.15;;;9.68;;
63087;SDS011;49173;43.164;27.786;2024-03-22T04:48:16;10.88;;;9.48;;
63087;SDS011;49173;43.164;27.786;2024-03-22T04:50:47;11.68;;;9.50;;
63087;SDS011;49173;43.164;27.786;2024-03-22T04:53:15;11.18;;;9.13;;
63087;SDS011;49173;43.164;27.786;2024-03-22T04:55:46;13.07;;;9.60;;
63087;SDS011;49173;43.164;27.786;2024-03-22T04:58:16;12.38;;;9.95;;
63087;SDS011;49173;43.164;27.786;2024-03-22T05:00:45;13.15;;;10.77;;
63087;SDS011;49173;43.164;27.786;2024-03-22T05:03:11;13.13;;;10.80;;
63087;SDS011;49173;43.164;27.786;2024-03-22T05:05:37;14.00;;;10.82;;
63087;SDS011;49173;43.164;27.786;2024-03-22T05:08:04;13.30;;;10.15;;
63087;SDS011;49173;43.164;27.786;2024-03-22T05:10:31;14.57;;;10.95;;
63087;SDS011;49173;43.164;27.786;2024-03-22T05:12:57;13.63;;;10.32;;
63087;SDS011;49173;43.164;27.786;2024-03-22T05:15:23;11.57;;;8.57;;
63087;SDS011;49173;43.164;27.786;2024-03-22T05:17:52;9.57;;;8.05;;
63087;SDS011;49173;43.164;27.786;2024-03-22T05:20:19;9.60;;;7.45;;
63087;SDS011;49173;43.164;27.786;2024-03-22T05:22:45;8.35;;;6.30;;
63087;SDS011;49173;43.164;27.786;2024-03-22T05:25:12;7.55;;;6.38;;
63087;SDS011;49173;43.164;27.786;2024-03-22T05:27:40;9.95;;;6.68;;
63087;SDS011;49173;43.164;27.786;2024-03-22T05:30:08;8.00;;;6.20;;
63087;SDS011;49173;43.164;27.786;2024-03-22T05:32:35;7.88;;;6.38;;
63087;SDS011;49173;43.164;27.786;2024-03-22T05:35:00;6.88;;;6.18;;
63087;SDS011;49173;43.164;27.786;2024-03-22T05:37:26;7.53;;;6.30;;
63087;SDS011;49173;43.164;27.786;2024-03-22T05:39:52;8.13;;;7.28;;
63087;SDS011;49173;43.164;27.786;2024-03-22T05:42:18;7.20;;;5.90;;
63087;SDS011;49173;43.164;27.786;2024-03-22T05:44:44;6.50;;;5.07;;
63087;SDS011;49173;43.164;27.786;2024-03-22T05:47:10;7.68;;;6.03;;
63087;SDS011;49173;43.164;27.786;2024-03-22T05:49:36;7.07;;;6.38;;
63087;SDS011;49173;43.164;27.786;2024-03-22T05:52:02;7.20;;;6.30;;
63087;SDS011;49173;43.164;27.786;2024-03-22T05:54:28;6.75;;;5.57;;
63087;SDS011;49173;43.164;27.786;2024-03-22T05:56:55;8.05;;;6.05;;
63087;SDS011;49173;43.164;27.786;2024-03-22T05:59:21;7.15;;;6.15;;
63087;SDS011;49173;43.164;27.786;2024-03-22T06:01:46;6.90;;;5.78;;
63087;SDS011;49173;43.164;27.786;2024-03-22T06:04:12;9.13;;;6.32;;
63087;SDS011;49173;43.164;27.786;2024-03-22T06:06:38;10.68;;;6.90;;
63087;SDS011;49173;43.164;27.786;2024-03-22T06:09:04;7.75;;;6.05;;
63087;SDS011;49173;43.164;27.786;2024-03-22T06:11:34;7.93;;;6.90;;
63087;SDS011;49173;43.164;27.786;2024-03-22T06:14:00;8.63;;;6.53;;
63087;SDS011;49173;43.164;27.786;2024-03-22T06:16:26;7.82;;;6.75;;
63087;SDS011;49173;43.164;27.786;2024-03-22T06:18:52;8.85;;;6.30;;
63087;SDS011;49173;43.164;27.786;2024-03-22T06:21:18;8.80;;;6.95;;
63087;SDS011;49173;43.164;27.786;2024-03-22T06:23:49;9.97;;;8.03;;
63087;SDS011;49173;43.164;27.786;2024-03-22T06:26:15;8.98;;;7.25;;
63087;SDS011;49173;43.164;27.786;2024-03-22T06:28:41;8.25;;;6.80;;
63087;SDS011;49173;43.164;27.786;2024-03-22T06:31:07;10.05;;;7.22;;
63087;SDS011;49173;43.164;27.786;2024-03-22T06:33:33;8.15;;;6.53;;
63087;SDS011;49173;43.164;27.786;2024-03-22T06:35:59;8.68;;;6.40;;
63087;SDS011;49173;43.164;27.786;2024-03-22T06:38:25;9.50;;;7.78;;
63087;SDS011;49173;43.164;27.786;2024-03-22T06:40:52;9.52;;;7.13;;
63087;SDS011;49173;43.164;27.786;2024-03-22T06:43:17;11.60;;;9.13;;
63087;SDS011;49173;43.164;27.786;2024-03-22T06:45:44;12.57;;;10.00;;
63087;SDS011;49173;43.164;27.786;2024-03-22T06:48:10;11.20;;;9.27;;
63087;SDS011;49173;43.164;27.786;2024-03-22T06:50:36;11.45;;;9.80;;
63087;SDS011;49173;43.164;27.786;2024-03-22T06:53:01;12.00;;;8.95;;
63087;SDS011;49173;43.164;27.786;2024-03-22T06:55:28;13.48;;;11.02;;
63087;SDS011;49173;43.164;27.786;2024-03-22T06:57:53;13.55;;;10.43;;
63087;SDS011;49173;43.164;27.786;2024-03-22T07:00:19;14.65;;;10.82;;
63087;SDS011;49173;43.164;27.786;2024-03-22T07:02:45;10.90;;;8.88;;
63087;SDS011;49173;43.164;27.786;2024-03-22T07:05:11;10.50;;;8.60;;
63087;SDS011;49173;43.164;27.786;2024-03-22T07:07:37;8.82;;;7.07;;
63087;SDS011;49173;43.164;27.786;2024-03-22T07:10:04;8.85;;;6.53;;
63087;SDS011;49173;43.164;27.786;2024-03-22T07:12:33;9.93;;;7.93;;
63087;SDS011;49173;43.164;27.786;2024-03-22T07:15:00;10.13;;;6.80;;
63087;SDS011;49173;43.164;27.786;2024-03-22T07:17:26;9.25;;;6.50;;
63087;SDS011;49173;43.164;27.786;2024-03-22T07:19:53;8.73;;;6.25;;
63087;SDS011;49173;43.164;27.786;2024-03-22T07:22:20;9.48;;;6.05;;
63087;SDS011;49173;43.164;27.786;2024-03-22T07:24:46;8.43;;;6.00;;
63087;SDS011;49173;43.164;27.786;2024-03-22T07:27:16;8.88;;;6.82;;
63087;SDS011;49173;43.164;27.786;2024-03-22T07:29:44;12.05;;;7.90;;
63087;SDS011;49173;43.164;27.786;2024-03-22T07:32:13;11.50;;;9.90;;
63087;SDS011;49173;43.164;27.786;2024-03-22T07:34:45;13.98;;;9.18;;
63087;SDS011;49173;43.164;27.786;2024-03-22T07:37:14;10.30;;;8.15;;
63087;SDS011;49173;43.164;27.786;2024-03-22T07:39:43;11.75;;;9.07;;
63087;SDS011;49173;43.164;27.786;2024-03-22T07:42:12;12.70;;;9.50;;
63087;SDS011;49173;43.164;27.786;2024-03-22T07:44:39;12.38;;;9.90;;
63087;SDS011;49173;43.164;27.786;2024-03-22T07:47:08;15.47;;;11.70;;
63087;SDS011;49173;43.164;27.786;2024-03-22T07:49:40;13.10;;;9.88;;
63087;SDS011;49173;43.164;27.786;2024-03-22T07:52:09;13.25;;;9.30;;
63087;SDS011;49173;43.164;27.786;2024-03-22T07:54:35;10.02;;;8.32;;
63087;SDS011;49173;43.164;27.786;2024-03-22T07:57:05;9.32;;;6.95;;
63087;SDS011;49173;43.164;27.786;2024-03-22T07:59:31;8.95;;;6.65;;
63087;SDS011;49173;43.164;27.786;2024-03-22T08:02:01;12.10;;;8.23;;
63087;SDS011;49173;43.164;27.786;2024-03-22T08:04:33;12.13;;;8.65;;
63087;SDS011;49173;43.164;27.786;2024-03-22T08:09:32;9.40;;;7.80;;
63087;SDS011;49173;43.164;27.786;2024-03-22T08:12:01;9.63;;;7.82;;
63087;SDS011;49173;43.164;27.786;2024-03-22T08:14:31;12.63;;;8.32;;
63087;SDS011;49173;43.164;27.786;2024-03-22T08:16:57;8.52;;;6.97;;
63087;SDS011;49173;43.164;27.786;2024-03-22T08:19:25;8.52;;;6.60;;
63087;SDS011;49173;43.164;27.786;2024-03-22T08:21:57;9.93;;;7.18;;
63087;SDS011;49173;43.164;27.786;2024-03-22T08:24:34;11.80;;;7.50;;
63087;SDS011;49173;43.164;27.786;2024-03-22T08:27:07;9.63;;;7.55;;
63087;SDS011;49173;43.164;27.786;2024-03-22T08:29:36;10.40;;;7.43;;
63087;SDS011;49173;43.164;27.786;2024-03-22T08:32:04;12.27;;;7.47;;
63087;SDS011;49173;43.164;27.786;2024-03-22T08:37:00;10.70;;;7.85;;
63087;SDS011;49173;43.164;27.786;2024-03-22T08:39:29;11.35;;;7.88;;
63087;SDS011;49173;43.164;27.786;2024-03-22T08:41:59;8.35;;;6.45;;
63087;SDS011;49173;43.164;27.786;2024-03-22T08:44:32;8.98;;;6.70;;
63087;SDS011;49173;43.164;27.786;2024-03-22T08:47:02;10.48;;;7.60;;
63087;SDS011;49173;43.164;27.786;2024-03-22T08:49:30;9.75;;;7.13;;
63087;SDS011;49173;43.164;27.786;2024-03-22T08:51:57;8.18;;;6.47;;
63087;SDS011;49173;43.164;27.786;2024-03-22T08:54:27;8.25;;;6.07;;
63087;SDS011;49173;43.164;27.786;2024-03-22T08:56:54;7.95;;;5.72;;
63087;SDS011;49173;43.164;27.786;2024-03-22T08:59:23;9.77;;;6.55;;
63087;SDS011;49173;43.164;27.786;2024-03-22T09:01:54;8.95;;;6.75;;
63087;SDS011;49173;43.164;27.786;2024-03-22T09:04:22;8.40;;;6.30;;
63087;SDS011;49173;43.164;27.786;2024-03-22T09:06:49;8.43;;;6.30;;
63087;SDS011;49173;43.164;27.786;2024-03-22T09:09:15;9.25;;;6.72;;
63087;SDS011;49173;43.164;27.786;2024-03-22T09:11:46;8.10;;;5.97;;
63087;SDS011;49173;43.164;27.786;2024-03-22T09:14:12;9.13;;;6.65;;
63087;SDS011;49173;43.164;27.786;2024-03-22T09:16:45;7.40;;;5.85;;
63087;SDS011;49173;43.164;27.786;2024-03-22T09:19:15;9.63;;;7.50;;
63087;SDS011;49173;43.164;27.786;2024-03-22T09:21:43;8.43;;;6.18;;
63087;SDS011;49173;43.164;27.786;2024-03-22T09:24:12;8.27;;;6.07;;
63087;SDS011;49173;43.164;27.786;2024-03-22T09:26:44;8.02;;;5.28;;
63087;SDS011;49173;43.164;27.786;2024-03-22T09:29:17;6.93;;;5.00;;
63087;SDS011;49173;43.164;27.786;2024-03-22T09:31:46;6.72;;;4.90;;
63087;SDS011;49173;43.164;27.786;2024-03-22T09:34:13;8.75;;;6.00;;
63087;SDS011;49173;43.164;27.786;2024-03-22T09:36:42;8.40;;;6.35;;
63087;SDS011;49173;43.164;27.786;2024-03-22T09:39:08;8.38;;;6.32;;
63087;SDS011;49173;43.164;27.786;2024-03-22T09:44:12;7.80;;;5.55;;
63087;SDS011;49173;43.164;27.786;2024-03-22T09:46:46;6.75;;;5.10;;
63087;SDS011;49173;43.164;27.786;2024-03-22T09:49:21;6.28;;;5.07;;
63087;SDS011;49173;43.164;27.786;2024-03-22T09:51:52;10.85;;;5.53;;
63087;SDS011;49173;43.164;27.786;2024-03-22T09:54:23;5.90;;;4.15;;
63087;SDS011;49173;43.164;27.786;2024-03-22T09:56:51;9.13;;;4.70;;
63087;SDS011;49173;43.164;27.786;2024-03-22T09:59:23;7.97;;;5.35;;
63087;SDS011;49173;43.164;27.786;2024-03-22T10:01:59;9.10;;;6.40;;
63087;SDS011;49173;43.164;27.786;2024-03-22T10:04:28;5.63;;;4.20;;
63087;SDS011;49173;43.164;27.786;2024-03-22T10:06:56;6.25;;;4.90;;
63087;SDS011;49173;43.164;27.786;2024-03-22T10:09:30;5.97;;;4.15;;
63087;SDS011;49173;43.164;27.786;2024-03-22T10:12:06;5.82;;;4.22;;
63087;SDS011;49173;43.164;27.786;2024-03-22T10:14:38;5.93;;;4.47;;
63087;SDS011;49173;43.164;27.786;2024-03-22T10:17:08;6.43;;;5.00;;
63087;SDS011;49173;43.164;27.786;2024-03-22T10:19:39;6.55;;;4.32;;
63087;SDS011;49173;43.164;27.786;2024-03-22T10:22:12;6.03;;;4.50;;
63087;SDS011;49173;43.164;27.786;2024-03-22T10:24:42;5.82;;;4.93;;
63087;SDS011;49173;43.164;27.786;2024-03-22T10:27:08;5.78;;;4.20;;
63087;SDS011;49173;43.164;27.786;2024-03-22T10:29:39;5.60;;;4.43;;
63087;SDS011;49173;43.164;27.786;2024-03-22T10:32:06;5.38;;;4.30;;
63087;SDS011;49173;43.164;27.786;2024-03-22T10:34:35;6.07;;;4.60;;
63087;SDS011;49173;43.164;27.786;2024-03-22T10:37:07;6.00;;;4.53;;
63087;SDS011;49173;43.164;27.786;2024-03-22T10:39:40;5.45;;;3.72;;
63087;SDS011;49173;43.164;27.786;2024-03-22T10:42:13;6.25;;;4.45;;
63087;SDS011;49173;43.164;27.786;2024-03-22T10:44:40;6.10;;;4.60;;
63087;SDS011;49173;43.164;27.786;2024-03-22T10:47:11;6.13;;;3.95;;
63087;SDS011;49173;43.164;27.786;2024-03-22T10:49:44;5.97;;;4.20;;
63087;SDS011;49173;43.164;27.786;2024-03-22T10:52:14;5.50;;;3.85;;
63087;SDS011;49173;43.164;27.786;2024-03-22T10:54:45;5.63;;;3.65;;
63087;SDS011;49173;43.164;27.786;2024-03-22T10:57:20;6.85;;;4.97;;
63087;SDS011;49173;43.164;27.786;2024-03-22T10:59:54;7.90;;;4.68;;
63087;SDS011;49173;43.164;27.786;2024-03-22T11:02:27;5.25;;;4.20;;
63087;SDS011;49173;43.164;27.786;2024-03-22T11:04:59;5.68;;;3.95;;
63087;SDS011;49173;43.164;27.786;2024-03-22T11:07:29;5.45;;;3.78;;
63087;SDS011;49173;43.164;27.786;2024-03-22T11:10:06;7.95;;;3.72;;
63087;SDS011;49173;43.164;27.786;2024-03-22T11:12:46;8.27;;;5.43;;
63087;SDS011;49173;43.164;27.786;2024-03-22T11:15:17;5.55;;;3.83;;
63087;SDS011;49173;43.164;27.786;2024-03-22T11:17:44;4.50;;;3.53;;
63087;SDS011;49173;43.164;27.786;2024-03-22T11:20:13;6.35;;;4.65;;
63087;SDS011;49173;43.164;27.786;2024-03-22T11:22:39;6.22;;;4.55;;
63087;SDS011;49173;43.164;27.786;2024-03-22T11:25:08;5.57;;;4.25;;
63087;SDS011;49173;43.164;27.786;2024-03-22T11:27:38;5.63;;;3.95;;
63087;SDS011;49173;43.164;27.786;2024-03-22T11:30:09;6.07;;;4.47;;
63087;SDS011;49173;43.164;27.786;2024-03-22T11:32:44;5.95;;;4.55;;
63087;SDS011;49173;43.164;27.786;2024-03-22T11:35:12;5.30;;;3.92;;
63087;SDS011;49173;43.164;27.786;2024-03-22T11:37:39;6.30;;;4.22;;
63087;SDS011;49173;43.164;27.786;2024-03-22T11:40:11;5.15;;;3.83;;
63087;SDS011;49173;43.164;27.786;2024-03-22T11:42:41;5.07;;;3.50;;
63087;SDS011;49173;43.164;27.786;2024-03-22T11:45:13;4.55;;;3.60;;
63087;SDS011;49173;43.164;27.786;2024-03-22T11:47:55;4.65;;;3.50;;
63087;SDS011;49173;43.164;27.786;2024-03-22T11:50:29;5.30;;;4.18;;
63087;SDS011;49173;43.164;27.786;2024-03-22T11:52:56;5.35;;;3.80;;
63087;SDS011;49173;43.164;27.786;2024-03-22T11:55:22;6.03;;;4.15;;
63087;SDS011;49173;43.164;27.786;2024-03-22T11:57:56;4.93;;;3.35;;
63087;SDS011;49173;43.164;27.786;2024-03-22T12:00:28;5.05;;;3.72;;
63087;SDS011;49173;43.164;27.786;2024-03-22T12:03:00;4.97;;;3.80;;
63087;SDS011;49173;43.164;27.786;2024-03-22T12:05:34;5.60;;;3.83;;
63087;SDS011;49173;43.164;27.786;2024-03-22T12:08:03;3.72;;;2.90;;
63087;SDS011;49173;43.164;27.786;2024-03-22T12:10:32;5.97;;;4.10;;
63087;SDS011;49173;43.164;27.786;2024-03-22T12:12:59;4.55;;;3.50;;
63087;SDS011;49173;43.164;27.786;2024-03-22T12:15:26;4.40;;;3.20;;
63087;SDS011;49173;43.164;27.786;2024-03-22T12:17:53;7.47;;;3.67;;
63087;SDS011;49173;43.164;27.786;2024-03-22T12:20:23;5.15;;;3.70;;
63087;SDS011;49173;43.164;27.786;2024-03-22T12:22:53;4.60;;;3.58;;
63087;SDS011;49173;43.164;27.786;2024-03-22T12:25:24;5.72;;;3.40;;
63087;SDS011;49173;43.164;27.786;2024-03-22T12:27:51;5.22;;;3.72;;
63087;SDS011;49173;43.164;27.786;2024-03-22T12:30:20;5.03;;;3.72;;
63087;SDS011;49173;43.164;27.786;2024-03-22T12:32:47;6.05;;;4.15;;
63087;SDS011;49173;43.164;27.786;2024-03-22T12:35:14;5.30;;;3.90;;
63087;SDS011;49173;43.164;27.786;2024-03-22T12:37:40;10.43;;;3.47;;
63087;SDS011;49173;43.164;27.786;2024-03-22T12:40:07;5.53;;;3.58;;
63087;SDS011;49173;43.164;27.786;2024-03-22T12:42:41;8.63;;;4.55;;
63087;SDS011;49173;43.164;27.786;2024-03-22T12:45:11;4.80;;;3.67;;
63087;SDS011;49173;43.164;27.786;2024-03-22T12:47:38;5.15;;;3.28;;
63087;SDS011;49173;43.164;27.786;2024-03-22T12:50:07;5.40;;;3.38;;
63087;SDS011;49173;43.164;27.786;2024-03-22T12:52:39;10.82;;;5.57;;
63087;SDS011;49173;43.164;27.786;2024-03-22T12:55:08;5.00;;;3.50;;
63087;SDS011;49173;43.164;27.786;2024-03-22T12:57:36;8.68;;;4.28;;
63087;SDS011;49173;43.164;27.786;2024-03-22T13:00:08;4.40;;;3.45;;
63087;SDS011;49173;43.164;27.786;2024-03-22T13:02:46;6.28;;;3.95;;
63087;SDS011;49173;43.164;27.786;2024-03-22T13:05:26;6.53;;;3.65;;
63087;SDS011;49173;43.164;27.786;2024-03-22T13:07:59;6.80;;;4.70;;
63087;SDS011;49173;43.164;27.786;2024-03-22T13:10:29;5.97;;;4.53;;
63087;SDS011;49173;43.164;27.786;2024-03-22T13:12:58;4.35;;;3.05;;
63087;SDS011;49173;43.164;27.786;2024-03-22T13:15:27;4.65;;;3.22;;
63087;SDS011;49173;43.164;27.786;2024-03-22T13:18:01;6.65;;;4.60;;
63087;SDS011;49173;43.164;27.786;2024-03-22T13:20:34;6.93;;;4.38;;
63087;SDS011;49173;43.164;27.786;2024-03-22T13:23:02;5.95;;;4.10;;
63087;SDS011;49173;43.164;27.786;2024-03-22T13:25:37;4.50;;;3.00;;
63087;SDS011;49173;43.164;27.786;2024-03-22T13:28:04;4.30;;;2.97;;
63087;SDS011;49173;43.164;27.786;2024-03-22T13:30:33;4.07;;;2.85;;
63087;SDS011;49173;43.164;27.786;2024-03-22T13:33:03;5.15;;;3.38;;
63087;SDS011;49173;43.164;27.786;2024-03-22T13:35:34;5.00;;;2.90;;
63087;SDS011;49173;43.164;27.786;2024-03-22T13:38:04;3.97;;;3.00;;
63087;SDS011;49173;43.164;27.786;2024-03-22T13:40:41;5.30;;;3.55;;
63087;SDS011;49173;43.164;27.786;2024-03-22T13:43:25;4.78;;;3.35;;
63087;SDS011;49173;43.164;27.786;2024-03-22T13:45:55;4.43;;;3.20;;
63087;SDS011;49173;43.164;27.786;2024-03-22T13:48:27;4.45;;;3.47;;
63087;SDS011;49173;43.164;27.786;2024-03-22T13:50:54;4.75;;;3.58;;
63087;SDS011;49173;43.164;27.786;2024-03-22T13:53:32;4.90;;;3.63;;
63087;SDS011;49173;43.164;27.786;2024-03-22T13:56:02;4.32;;;3.40;;
63087;SDS011;49173;43.164;27.786;2024-03-22T13:58:29;4.68;;;3.78;;
63087;SDS011;49173;43.164;27.786;2024-03-22T14:01:00;8.32;;;4.22;;
63087;SDS011;49173;43.164;27.786;2024-03-22T14:03:28;7.63;;;4.45;;
63087;SDS011;49173;43.164;27.786;2024-03-22T14:05:55;6.70;;;3.72;;
63087;SDS011;49173;43.164;27.786;2024-03-22T14:08:28;5.88;;;3.70;;
63087;SDS011;49173;43.164;27.786;2024-03-22T14:10:58;5.15;;;3.92;;
63087;SDS011;49173;43.164;27.786;2024-03-22T14:13:27;7.07;;;4.53;;
63087;SDS011;49173;43.164;27.786;2024-03-22T14:15:56;4.82;;;3.35;;
63087;SDS011;49173;43.164;27.786;2024-03-22T14:18:27;6.72;;;4.50;;
63087;SDS011;49173;43.164;27.786;2024-03-22T14:20:57;5.72;;;3.90;;
63087;SDS011;49173;43.164;27.786;2024-03-22T14:23:28;6.57;;;3.53;;
63087;SDS011;49173;43.164;27.786;2024-03-22T14:25:58;5.35;;;3.72;;
63087;SDS011;49173;43.164;27.786;2024-03-22T14:28:27;9.90;;;5.70;;
63087;SDS011;49173;43.164;27.786;2024-03-22T14:30:57;6.22;;;4.78;;
63087;SDS011;49173;43.164;27.786;2024-03-22T14:33:28;7.72;;;4.90;;
63087;SDS011;49173;43.164;27.786;2024-03-22T14:36:01;5.30;;;3.70;;
63087;SDS011;49173;43.164;27.786;2024-03-22T14:38:28;18.85;;;16.52;;
63087;SDS011;49173;43.164;27.786;2024-03-22T14:41:00;7.63;;;4.82;;
63087;SDS011;49173;43.164;27.786;2024-03-22T14:43:26;7.43;;;4.90;;
63087;SDS011;49173;43.164;27.786;2024-03-22T14:46:06;9.00;;;5.63;;